SIA7443 YSSY-YMML
Flight info
| Callsign | SIA7443 |
|---|---|
| Flight time | 1h 6m |
| Altitude | 34000 |
| Route | TESAT H65 LEECE Q29 ML |
| Aircraft | B77L/H-SDE1E2E3FGHIJ2J3J4J5M1RWXY/LB1D1 |
Departure
| Time | 2026-05-08 06:58 |
|---|---|
| Airport | Sydney Kingsford Smith International Airport (YSSY) |
Arrival
| Time | 2026-05-08 08:05 |
|---|---|
| Airport | Melbourne Airport (YMML) |
| Time | Latitude | Longitude | Altitude | Speed | Heading |
|---|---|---|---|---|---|
| 2026-05-08 06:27 | -33.92707 | 151.17452 | 34 ft | 0 kts | 78° |
| 2026-05-08 06:43 | -33.92834 | 151.17482 | 34 ft | 0 kts | 77° |
| 2026-05-08 06:46 | -33.92834 | 151.17480 | 34 ft | 2 kts | 78° |
| 2026-05-08 06:46 | -33.92838 | 151.17449 | 34 ft | 4 kts | 90° |
| 2026-05-08 06:47 | -33.92835 | 151.17418 | 34 ft | 4 kts | 108° |
| 2026-05-08 06:47 | -33.92824 | 151.17389 | 35 ft | 4 kts | 131° |
| 2026-05-08 06:47 | -33.92803 | 151.17369 | 33 ft | 4 kts | 154° |
| 2026-05-08 06:47 | -33.92778 | 151.17358 | 33 ft | 4 kts | 168° |
| 2026-05-08 06:48 | -33.92761 | 151.17354 | 34 ft | 1 kts | 172° |
| 2026-05-08 06:50 | -33.92766 | 151.17355 | 33 ft | 3 kts | 172° |
| 2026-05-08 06:50 | -33.92814 | 151.17369 | 34 ft | 8 kts | 166° |
| 2026-05-08 06:51 | -33.92871 | 151.17385 | 35 ft | 8 kts | 164° |
| 2026-05-08 06:51 | -33.92906 | 151.17438 | 35 ft | 10 kts | 107° |
| 2026-05-08 06:51 | -33.92949 | 151.17514 | 35 ft | 13 kts | 151° |
| 2026-05-08 06:51 | -33.93044 | 151.17534 | 35 ft | 15 kts | 186° |
| 2026-05-08 06:52 | -33.93152 | 151.17532 | 34 ft | 16 kts | 168° |
| 2026-05-08 06:52 | -33.93261 | 151.17561 | 34 ft | 16 kts | 167° |
| 2026-05-08 06:52 | -33.93368 | 151.17588 | 34 ft | 16 kts | 169° |
| 2026-05-08 06:52 | -33.93478 | 151.17585 | 34 ft | 16 kts | 177° |
| 2026-05-08 06:53 | -33.93587 | 151.17611 | 34 ft | 16 kts | 167° |
| 2026-05-08 06:53 | -33.93689 | 151.17663 | 34 ft | 16 kts | 152° |
| 2026-05-08 06:53 | -33.93794 | 151.17699 | 34 ft | 11 kts | 168° |
| 2026-05-08 06:53 | -33.93845 | 151.17755 | 34 ft | 12 kts | 83° |
| 2026-05-08 06:54 | -33.93822 | 151.17850 | 34 ft | 13 kts | 74° |
| 2026-05-08 06:54 | -33.93790 | 151.17982 | 35 ft | 20 kts | 74° |
| 2026-05-08 06:54 | -33.93764 | 151.18095 | 35 ft | 21 kts | 74° |
| 2026-05-08 06:54 | -33.93711 | 151.18324 | 35 ft | 21 kts | 75° |
| 2026-05-08 06:55 | -33.93670 | 151.18495 | 34 ft | 21 kts | 73° |
| 2026-05-08 06:55 | -33.93643 | 151.18608 | 34 ft | 21 kts | 74° |
| 2026-05-08 06:55 | -33.93604 | 151.18773 | 34 ft | 15 kts | 74° |
| 2026-05-08 06:55 | -33.93596 | 151.18882 | 34 ft | 13 kts | 108° |
| 2026-05-08 06:56 | -33.93647 | 151.18942 | 33 ft | 0 kts | 159° |
| 2026-05-08 06:56 | -33.93649 | 151.18943 | 33 ft | 2 kts | 159° |
| 2026-05-08 06:56 | -33.93673 | 151.18952 | 32 ft | 10 kts | 163° |
| 2026-05-08 06:57 | -33.93744 | 151.18964 | 29 ft | 9 kts | 194° |
| 2026-05-08 06:57 | -33.93770 | 151.18918 | 30 ft | 8 kts | 254° |
| 2026-05-08 06:57 | -33.93818 | 151.18719 | 30 ft | 53 kts | 254° |
| 2026-05-08 06:57 | -33.93987 | 151.17999 | 33 ft | 124 kts | 254° |
| 2026-05-08 06:58 | -33.94267 | 151.16785 | 156 ft | 167 kts | 255° |
| 2026-05-08 06:58 | -33.94597 | 151.15381 | 726 ft | 178 kts | 252° |
| 2026-05-08 06:58 | -33.94928 | 151.14011 | 1689 ft | 166 kts | 254° |
| 2026-05-08 06:58 | -33.95252 | 151.12646 | 2154 ft | 179 kts | 252° |
| 2026-05-08 06:59 | -33.95635 | 151.11116 | 2364 ft | 202 kts | 247° |
| 2026-05-08 06:59 | -33.96591 | 151.09801 | 2616 ft | 224 kts | 209° |
| 2026-05-08 06:59 | -33.98076 | 151.09100 | 3190 ft | 234 kts | 203° |
| 2026-05-08 06:59 | -33.99606 | 151.08384 | 4003 ft | 234 kts | 202° |
| 2026-05-08 07:00 | -34.01101 | 151.07656 | 5011 ft | 229 kts | 201° |
| 2026-05-08 07:00 | -34.02588 | 151.06923 | 5790 ft | 236 kts | 201° |
| 2026-05-08 07:00 | -34.04154 | 151.06141 | 6215 ft | 256 kts | 202° |
| 2026-05-08 07:00 | -34.05879 | 151.05270 | 6424 ft | 282 kts | 202° |
| 2026-05-08 07:01 | -34.07768 | 151.04308 | 6646 ft | 308 kts | 202° |
| 2026-05-08 07:01 | -34.09782 | 151.03269 | 7229 ft | 320 kts | 202° |
| 2026-05-08 07:01 | -34.11818 | 151.02213 | 8000 ft | 326 kts | 203° |
| 2026-05-08 07:01 | -34.13915 | 151.01121 | 8836 ft | 330 kts | 203° |
| 2026-05-08 07:02 | -34.16044 | 151.00012 | 9608 ft | 337 kts | 203° |
| 2026-05-08 07:02 | -34.18212 | 150.98880 | 10357 ft | 342 kts | 204° |
| 2026-05-08 07:02 | -34.20401 | 150.97735 | 11198 ft | 344 kts | 204° |
| 2026-05-08 07:02 | -34.22612 | 150.96576 | 12048 ft | 348 kts | 204° |
| 2026-05-08 07:03 | -34.24843 | 150.95404 | 12988 ft | 351 kts | 204° |
| 2026-05-08 07:03 | -34.27094 | 150.94222 | 13917 ft | 354 kts | 204° |
| 2026-05-08 07:03 | -34.29366 | 150.93029 | 14708 ft | 358 kts | 204° |
| 2026-05-08 07:03 | -34.31665 | 150.91820 | 15381 ft | 362 kts | 204° |
| 2026-05-08 07:04 | -34.33956 | 150.90618 | 15991 ft | 366 kts | 204° |
| 2026-05-08 07:04 | -34.36303 | 150.89385 | 16604 ft | 369 kts | 205° |
| 2026-05-08 07:04 | -34.38668 | 150.88140 | 17228 ft | 373 kts | 205° |
| 2026-05-08 07:04 | -34.41057 | 150.86882 | 17845 ft | 376 kts | 205° |
| 2026-05-08 07:05 | -34.43464 | 150.85613 | 18444 ft | 379 kts | 205° |
| 2026-05-08 07:05 | -34.45895 | 150.84332 | 18966 ft | 382 kts | 205° |
| 2026-05-08 07:05 | -34.48338 | 150.83043 | 19538 ft | 384 kts | 205° |
| 2026-05-08 07:05 | -34.50748 | 150.81771 | 20211 ft | 381 kts | 205° |
| 2026-05-08 07:06 | -34.53170 | 150.80380 | 20772 ft | 382 kts | 211° |
| 2026-05-08 07:06 | -34.55330 | 150.78543 | 21180 ft | 386 kts | 219° |
| 2026-05-08 07:06 | -34.57331 | 150.76350 | 21664 ft | 390 kts | 224° |
| 2026-05-08 07:06 | -34.59091 | 150.73833 | 22070 ft | 396 kts | 231° |
| 2026-05-08 07:07 | -34.60736 | 150.71107 | 22377 ft | 403 kts | 231° |
| 2026-05-08 07:07 | -34.62383 | 150.68329 | 22795 ft | 407 kts | 232° |
| 2026-05-08 07:07 | -34.64033 | 150.65536 | 23347 ft | 407 kts | 232° |
| 2026-05-08 07:07 | -34.65691 | 150.62739 | 23846 ft | 409 kts | 231° |
| 2026-05-08 07:08 | -34.67363 | 150.59932 | 24245 ft | 411 kts | 231° |
| 2026-05-08 07:08 | -34.69046 | 150.57114 | 24641 ft | 413 kts | 231° |
| 2026-05-08 07:08 | -34.70716 | 150.54323 | 25028 ft | 415 kts | 231° |
| 2026-05-08 07:08 | -34.72412 | 150.51490 | 25459 ft | 416 kts | 232° |
| 2026-05-08 07:09 | -34.74122 | 150.48634 | 25944 ft | 419 kts | 232° |
| 2026-05-08 07:09 | -34.75842 | 150.45760 | 26448 ft | 422 kts | 232° |
| 2026-05-08 07:09 | -34.77573 | 150.42863 | 26933 ft | 425 kts | 232° |
| 2026-05-08 07:09 | -34.79314 | 150.39952 | 27461 ft | 427 kts | 232° |
| 2026-05-08 07:10 | -34.81067 | 150.37017 | 28006 ft | 430 kts | 232° |
| 2026-05-08 07:10 | -34.82831 | 150.34060 | 28453 ft | 433 kts | 232° |
| 2026-05-08 07:10 | -34.84604 | 150.31087 | 28894 ft | 436 kts | 232° |
| 2026-05-08 07:10 | -34.86390 | 150.28088 | 29362 ft | 438 kts | 232° |
| 2026-05-08 07:11 | -34.88183 | 150.25074 | 29768 ft | 440 kts | 232° |
| 2026-05-08 07:11 | -34.89955 | 150.22094 | 30306 ft | 439 kts | 232° |
| 2026-05-08 07:11 | -34.91738 | 150.19090 | 30826 ft | 437 kts | 232° |
| 2026-05-08 07:11 | -34.93516 | 150.16093 | 31281 ft | 436 kts | 233° |
| 2026-05-08 07:12 | -34.95293 | 150.13096 | 31679 ft | 437 kts | 233° |
| 2026-05-08 07:12 | -34.97072 | 150.10093 | 32116 ft | 437 kts | 232° |
| 2026-05-08 07:12 | -34.98851 | 150.07089 | 32522 ft | 437 kts | 232° |
| 2026-05-08 07:12 | -35.00625 | 150.04088 | 32981 ft | 435 kts | 232° |
| 2026-05-08 07:13 | -35.02393 | 150.01097 | 33459 ft | 434 kts | 232° |
| 2026-05-08 07:13 | -35.04157 | 149.98111 | 33875 ft | 433 kts | 232° |
| 2026-05-08 07:13 | -35.05918 | 149.95128 | 34177 ft | 434 kts | 232° |
| 2026-05-08 07:13 | -35.07694 | 149.92120 | 34146 ft | 437 kts | 232° |
| 2026-05-08 07:14 | -35.11220 | 149.86142 | 34130 ft | 435 kts | 232° |
| 2026-05-08 07:14 | -35.14760 | 149.80132 | 34166 ft | 436 kts | 232° |
| 2026-05-08 07:15 | -35.18304 | 149.74106 | 34139 ft | 437 kts | 232° |
| 2026-05-08 07:15 | -35.21845 | 149.68072 | 34163 ft | 437 kts | 232° |
| 2026-05-08 07:16 | -35.25385 | 149.62029 | 34151 ft | 437 kts | 232° |
| 2026-05-08 07:16 | -35.28896 | 149.56024 | 34155 ft | 437 kts | 231° |
| 2026-05-08 07:17 | -35.32431 | 149.49970 | 34147 ft | 437 kts | 231° |
| 2026-05-08 07:17 | -35.35968 | 149.43902 | 34154 ft | 438 kts | 232° |
| 2026-05-08 07:18 | -35.39501 | 149.37830 | 34166 ft | 438 kts | 232° |
| 2026-05-08 07:18 | -35.43033 | 149.31748 | 34180 ft | 438 kts | 231° |
| 2026-05-08 07:19 | -35.46559 | 149.25664 | 34160 ft | 437 kts | 231° |
| 2026-05-08 07:19 | -35.50046 | 149.19639 | 34154 ft | 436 kts | 231° |
| 2026-05-08 07:20 | -35.53548 | 149.13579 | 34154 ft | 434 kts | 231° |
| 2026-05-08 07:20 | -35.57036 | 149.07532 | 34171 ft | 434 kts | 231° |
| 2026-05-08 07:21 | -35.60522 | 149.01476 | 34150 ft | 434 kts | 231° |
| 2026-05-08 07:21 | -35.63990 | 148.95446 | 34163 ft | 435 kts | 231° |
| 2026-05-08 07:22 | -35.67484 | 148.89357 | 34179 ft | 437 kts | 231° |
| 2026-05-08 07:22 | -35.70994 | 148.83229 | 34190 ft | 439 kts | 231° |
| 2026-05-08 07:23 | -35.74507 | 148.77082 | 34199 ft | 439 kts | 231° |
| 2026-05-08 07:23 | -35.78016 | 148.70935 | 34184 ft | 439 kts | 231° |
| 2026-05-08 07:24 | -35.81506 | 148.64806 | 34197 ft | 440 kts | 231° |
| 2026-05-08 07:24 | -35.85023 | 148.58623 | 34204 ft | 441 kts | 231° |
| 2026-05-08 07:25 | -35.88538 | 148.52432 | 34215 ft | 440 kts | 231° |
| 2026-05-08 07:26 | -35.93775 | 148.43130 | 34215 ft | 440 kts | 231° |
| 2026-05-08 07:26 | -35.97266 | 148.36911 | 34216 ft | 441 kts | 231° |
| 2026-05-08 07:27 | -36.00731 | 148.30724 | 34217 ft | 441 kts | 231° |
| 2026-05-08 07:27 | -36.04218 | 148.24493 | 34224 ft | 441 kts | 231° |
| 2026-05-08 07:28 | -36.07695 | 148.18267 | 34206 ft | 440 kts | 231° |
| 2026-05-08 07:28 | -36.11174 | 148.12030 | 34224 ft | 441 kts | 231° |
| 2026-05-08 07:29 | -36.14670 | 148.05766 | 34228 ft | 444 kts | 231° |
| 2026-05-08 07:29 | -36.18159 | 147.99520 | 34242 ft | 445 kts | 231° |
| 2026-05-08 07:30 | -36.21686 | 147.93193 | 34219 ft | 447 kts | 231° |
| 2026-05-08 07:30 | -36.25217 | 147.86842 | 34222 ft | 448 kts | 231° |
| 2026-05-08 07:31 | -36.28745 | 147.80483 | 34234 ft | 449 kts | 231° |
| 2026-05-08 07:31 | -36.32262 | 147.74137 | 34231 ft | 450 kts | 231° |
| 2026-05-08 07:32 | -36.35797 | 147.67741 | 34218 ft | 450 kts | 231° |
| 2026-05-08 07:32 | -36.39327 | 147.61333 | 34211 ft | 449 kts | 231° |
| 2026-05-08 07:33 | -36.42848 | 147.54925 | 34227 ft | 449 kts | 231° |
| 2026-05-08 07:33 | -36.46362 | 147.48518 | 34226 ft | 449 kts | 231° |
| 2026-05-08 07:34 | -36.49851 | 147.42150 | 34224 ft | 449 kts | 231° |
| 2026-05-08 07:34 | -36.53361 | 147.35731 | 34210 ft | 449 kts | 231° |
| 2026-05-08 07:35 | -36.56873 | 147.29294 | 34222 ft | 450 kts | 231° |
| 2026-05-08 07:35 | -36.60394 | 147.22828 | 34211 ft | 451 kts | 231° |
| 2026-05-08 07:36 | -36.63890 | 147.16397 | 34229 ft | 452 kts | 231° |
| 2026-05-08 07:36 | -36.67417 | 147.09897 | 34206 ft | 453 kts | 231° |
| 2026-05-08 07:37 | -36.70940 | 147.03391 | 34230 ft | 453 kts | 231° |
| 2026-05-08 07:37 | -36.74423 | 146.96953 | 34036 ft | 441 kts | 231° |
| 2026-05-08 07:37 | -36.76126 | 146.93802 | 33770 ft | 437 kts | 231° |
| 2026-05-08 07:38 | -36.77823 | 146.90663 | 33424 ft | 436 kts | 231° |
| 2026-05-08 07:38 | -36.79492 | 146.87575 | 33068 ft | 434 kts | 231° |
| 2026-05-08 07:38 | -36.81177 | 146.84454 | 32744 ft | 432 kts | 231° |
| 2026-05-08 07:38 | -36.82852 | 146.81347 | 32358 ft | 431 kts | 232° |
| 2026-05-08 07:39 | -36.84475 | 146.78334 | 32020 ft | 429 kts | 232° |
| 2026-05-08 07:39 | -36.85988 | 146.75520 | 31746 ft | 427 kts | 232° |
| 2026-05-08 07:39 | -36.87532 | 146.72646 | 31473 ft | 424 kts | 232° |
| 2026-05-08 07:39 | -36.89169 | 146.69595 | 31182 ft | 421 kts | 232° |
| 2026-05-08 07:40 | -36.90795 | 146.66563 | 30871 ft | 419 kts | 232° |
| 2026-05-08 07:40 | -36.92411 | 146.63548 | 30477 ft | 415 kts | 232° |
| 2026-05-08 07:40 | -36.94011 | 146.60560 | 29988 ft | 412 kts | 232° |
| 2026-05-08 07:40 | -36.95572 | 146.57643 | 29477 ft | 408 kts | 232° |
| 2026-05-08 07:41 | -36.97139 | 146.54712 | 29029 ft | 403 kts | 232° |
| 2026-05-08 07:41 | -36.98690 | 146.51806 | 28550 ft | 400 kts | 232° |
| 2026-05-08 07:41 | -37.00227 | 146.48927 | 28103 ft | 396 kts | 232° |
| 2026-05-08 07:41 | -37.01747 | 146.46077 | 27647 ft | 393 kts | 232° |
| 2026-05-08 07:42 | -37.03257 | 146.43243 | 27195 ft | 390 kts | 232° |
| 2026-05-08 07:42 | -37.04753 | 146.40435 | 26749 ft | 386 kts | 232° |
| 2026-05-08 07:42 | -37.06236 | 146.37648 | 26306 ft | 384 kts | 232° |
| 2026-05-08 07:42 | -37.07709 | 146.34874 | 25878 ft | 381 kts | 232° |
| 2026-05-08 07:43 | -37.09172 | 146.32115 | 25451 ft | 379 kts | 233° |
| 2026-05-08 07:43 | -37.10627 | 146.29365 | 25022 ft | 378 kts | 233° |
| 2026-05-08 07:43 | -37.12076 | 146.26626 | 24606 ft | 376 kts | 233° |
| 2026-05-08 07:43 | -37.13519 | 146.23895 | 24174 ft | 375 kts | 233° |
| 2026-05-08 07:44 | -37.14955 | 146.21176 | 23718 ft | 375 kts | 233° |
| 2026-05-08 07:44 | -37.16377 | 146.18482 | 23181 ft | 375 kts | 233° |
| 2026-05-08 07:44 | -37.17804 | 146.15775 | 22799 ft | 371 kts | 233° |
| 2026-05-08 07:44 | -37.19220 | 146.13085 | 22368 ft | 368 kts | 233° |
| 2026-05-08 07:45 | -37.20624 | 146.10417 | 21942 ft | 365 kts | 233° |
| 2026-05-08 07:45 | -37.22020 | 146.07763 | 21525 ft | 362 kts | 233° |
| 2026-05-08 07:45 | -37.23401 | 146.05134 | 21112 ft | 360 kts | 233° |
| 2026-05-08 07:45 | -37.24774 | 146.02520 | 20696 ft | 358 kts | 234° |
| 2026-05-08 07:46 | -37.26139 | 145.99919 | 20298 ft | 356 kts | 234° |
| 2026-05-08 07:46 | -37.27496 | 145.97330 | 19886 ft | 354 kts | 234° |
| 2026-05-08 07:46 | -37.28845 | 145.94756 | 19477 ft | 352 kts | 234° |
| 2026-05-08 07:46 | -37.30188 | 145.92192 | 19067 ft | 351 kts | 234° |
| 2026-05-08 07:47 | -37.31524 | 145.89642 | 18667 ft | 349 kts | 233° |
| 2026-05-08 07:47 | -37.32843 | 145.87132 | 18219 ft | 347 kts | 233° |
| 2026-05-08 07:47 | -37.34169 | 145.84610 | 17759 ft | 345 kts | 233° |
| 2026-05-08 07:48 | -37.36905 | 145.79393 | 16891 ft | 338 kts | 234° |
| 2026-05-08 07:48 | -37.38191 | 145.76940 | 16503 ft | 335 kts | 234° |
| 2026-05-08 07:48 | -37.39467 | 145.74505 | 16096 ft | 332 kts | 234° |
| 2026-05-08 07:48 | -37.40735 | 145.72085 | 15708 ft | 330 kts | 234° |
| 2026-05-08 07:49 | -37.41988 | 145.69688 | 15307 ft | 327 kts | 234° |
| 2026-05-08 07:49 | -37.43237 | 145.67297 | 14929 ft | 325 kts | 234° |
| 2026-05-08 07:49 | -37.44439 | 145.64908 | 14525 ft | 321 kts | 240° |
| 2026-05-08 07:49 | -37.45073 | 145.62208 | 14154 ft | 327 kts | 262° |
| 2026-05-08 07:50 | -37.45079 | 145.59346 | 13765 ft | 329 kts | 268° |
| 2026-05-08 07:50 | -37.45025 | 145.56480 | 13395 ft | 335 kts | 268° |
| 2026-05-08 07:50 | -37.44971 | 145.53551 | 13044 ft | 334 kts | 267° |
| 2026-05-08 07:50 | -37.44927 | 145.50626 | 12587 ft | 333 kts | 267° |
| 2026-05-08 07:51 | -37.44891 | 145.47726 | 12179 ft | 330 kts | 266° |
| 2026-05-08 07:51 | -37.44857 | 145.44853 | 11797 ft | 327 kts | 266° |
| 2026-05-08 07:51 | -37.44823 | 145.42006 | 11414 ft | 323 kts | 266° |
| 2026-05-08 07:51 | -37.44791 | 145.39193 | 11038 ft | 320 kts | 266° |
| 2026-05-08 07:52 | -37.44757 | 145.36419 | 10755 ft | 314 kts | 266° |
| 2026-05-08 07:52 | -37.44721 | 145.33706 | 10597 ft | 304 kts | 266° |
| 2026-05-08 07:52 | -37.44685 | 145.31107 | 10507 ft | 291 kts | 265° |
| 2026-05-08 07:52 | -37.44652 | 145.28618 | 10405 ft | 279 kts | 265° |
| 2026-05-08 07:53 | -37.44622 | 145.26236 | 10112 ft | 274 kts | 266° |
| 2026-05-08 07:53 | -37.44595 | 145.23860 | 9770 ft | 270 kts | 266° |
| 2026-05-08 07:53 | -37.44564 | 145.21512 | 9448 ft | 266 kts | 265° |
| 2026-05-08 07:53 | -37.44533 | 145.19201 | 9155 ft | 262 kts | 265° |
| 2026-05-08 07:54 | -37.44501 | 145.16928 | 8831 ft | 259 kts | 265° |
| 2026-05-08 07:54 | -37.44468 | 145.14677 | 8524 ft | 256 kts | 265° |
| 2026-05-08 07:54 | -37.44436 | 145.12457 | 8276 ft | 250 kts | 265° |
| 2026-05-08 07:54 | -37.44402 | 145.10357 | 8126 ft | 230 kts | 264° |
| 2026-05-08 07:55 | -37.44373 | 145.08417 | 7855 ft | 214 kts | 264° |
| 2026-05-08 07:55 | -37.44347 | 145.06586 | 7515 ft | 203 kts | 264° |
| 2026-05-08 07:55 | -37.44320 | 145.04855 | 7175 ft | 194 kts | 263° |
| 2026-05-08 07:55 | -37.44295 | 145.03184 | 6866 ft | 189 kts | 263° |
| 2026-05-08 07:56 | -37.44269 | 145.01628 | 6675 ft | 175 kts | 263° |
| 2026-05-08 07:56 | -37.44248 | 145.00083 | 6196 ft | 178 kts | 263° |
| 2026-05-08 07:56 | -37.44228 | 144.98510 | 5952 ft | 182 kts | 263° |
| 2026-05-08 07:56 | -37.44207 | 144.96899 | 5707 ft | 186 kts | 263° |
| 2026-05-08 07:57 | -37.44179 | 144.95296 | 5589 ft | 178 kts | 263° |
| 2026-05-08 07:57 | -37.44213 | 144.93761 | 5587 ft | 178 kts | 254° |
| 2026-05-08 07:57 | -37.44448 | 144.92126 | 5611 ft | 197 kts | 252° |
| 2026-05-08 07:57 | -37.44707 | 144.90405 | 5367 ft | 204 kts | 253° |
| 2026-05-08 07:58 | -37.44962 | 144.88662 | 5128 ft | 200 kts | 253° |
| 2026-05-08 07:58 | -37.45203 | 144.86969 | 4896 ft | 193 kts | 253° |
| 2026-05-08 07:58 | -37.45437 | 144.85327 | 4650 ft | 188 kts | 253° |
| 2026-05-08 07:58 | -37.45661 | 144.83740 | 4501 ft | 183 kts | 253° |
| 2026-05-08 07:59 | -37.45916 | 144.82203 | 4237 ft | 178 kts | 242° |
| 2026-05-08 07:59 | -37.46681 | 144.81134 | 4072 ft | 163 kts | 201° |
| 2026-05-08 07:59 | -37.47786 | 144.80922 | 3938 ft | 163 kts | 187° |
| 2026-05-08 07:59 | -37.48932 | 144.80863 | 3720 ft | 166 kts | 182° |
| 2026-05-08 08:00 | -37.50074 | 144.80892 | 3494 ft | 162 kts | 182° |
| 2026-05-08 08:00 | -37.51204 | 144.80948 | 3272 ft | 164 kts | 179° |
| 2026-05-08 08:00 | -37.52343 | 144.81094 | 3054 ft | 165 kts | 176° |
| 2026-05-08 08:00 | -37.53461 | 144.81285 | 2836 ft | 159 kts | 176° |
| 2026-05-08 08:01 | -37.54528 | 144.81480 | 2612 ft | 150 kts | 175° |
| 2026-05-08 08:01 | -37.55536 | 144.81669 | 2448 ft | 144 kts | 175° |
| 2026-05-08 08:01 | -37.56527 | 144.81853 | 2216 ft | 143 kts | 175° |
| 2026-05-08 08:01 | -37.57483 | 144.82030 | 2052 ft | 138 kts | 175° |
| 2026-05-08 08:02 | -37.58434 | 144.82207 | 1876 ft | 142 kts | 174° |
| 2026-05-08 08:02 | -37.59417 | 144.82391 | 1670 ft | 142 kts | 173° |
| 2026-05-08 08:02 | -37.60400 | 144.82572 | 1450 ft | 143 kts | 173° |
| 2026-05-08 08:02 | -37.61387 | 144.82757 | 1270 ft | 144 kts | 173° |
| 2026-05-08 08:03 | -37.62382 | 144.82944 | 1051 ft | 142 kts | 174° |
| 2026-05-08 08:03 | -37.63359 | 144.83126 | 839 ft | 142 kts | 173° |
| 2026-05-08 08:03 | -37.64329 | 144.83310 | 672 ft | 143 kts | 172° |
| 2026-05-08 08:03 | -37.65323 | 144.83492 | 521 ft | 146 kts | 174° |
| 2026-05-08 08:04 | -37.66308 | 144.83670 | 411 ft | 132 kts | 172° |
| 2026-05-08 08:04 | -37.67148 | 144.83830 | 386 ft | 113 kts | 172° |
| 2026-05-08 08:04 | -37.67835 | 144.83959 | 363 ft | 76 kts | 171° |
| 2026-05-08 08:04 | -37.68233 | 144.84032 | 359 ft | 52 kts | 170° |
| 2026-05-08 08:05 | -37.68485 | 144.84084 | 356 ft | 16 kts | 162° |
| 2026-05-08 08:05 | -37.68548 | 144.84169 | 357 ft | 2 kts | 111° |
| 2026-05-08 08:05 | -37.68552 | 144.84183 | 357 ft | 4 kts | 104° |
| 2026-05-08 08:05 | -37.68551 | 144.84244 | 348 ft | 6 kts | 87° |
| 2026-05-08 08:06 | -37.68545 | 144.84281 | 354 ft | 7 kts | 67° |
| 2026-05-08 08:06 | -37.68501 | 144.84338 | 357 ft | 7 kts | 39° |
| 2026-05-08 08:06 | -37.68476 | 144.84361 | 357 ft | 7 kts | 34° |
| 2026-05-08 08:06 | -37.68379 | 144.84442 | 357 ft | 20 kts | 33° |
| 2026-05-08 08:07 | -37.68274 | 144.84469 | 357 ft | 10 kts | 351° |
| 2026-05-08 08:07 | -37.68208 | 144.84457 | 362 ft | 10 kts | 351° |
| 2026-05-08 08:07 | -37.68131 | 144.84442 | 360 ft | 12 kts | 351° |
| 2026-05-08 08:07 | -37.68050 | 144.84427 | 363 ft | 12 kts | 352° |
| 2026-05-08 08:08 | -37.67996 | 144.84417 | 367 ft | 12 kts | 352° |
| 2026-05-08 08:08 | -37.67914 | 144.84402 | 366 ft | 12 kts | 352° |
| 2026-05-08 08:08 | -37.67845 | 144.84424 | 373 ft | 10 kts | 54° |
| 2026-05-08 08:08 | -37.67827 | 144.84506 | 372 ft | 10 kts | 81° |
| 2026-05-08 08:09 | -37.67803 | 144.84583 | 374 ft | 10 kts | 38° |
| 2026-05-08 08:09 | -37.67771 | 144.84621 | 378 ft | 3 kts | 77° |
| 2026-05-08 08:09 | -37.67783 | 144.84656 | 375 ft | 7 kts | 128° |
| 2026-05-08 08:09 | -37.67808 | 144.84693 | 372 ft | 2 kts | 129° |
| 2026-05-08 08:10 | -37.67817 | 144.84707 | 373 ft | 3 kts | 129° |
| 2026-05-08 08:10 | -37.67819 | 144.84709 | 373 ft | 1 kts | 129° |
| 2026-05-08 08:10 | -37.67824 | 144.84717 | 372 ft | 0 kts | 129° |
| 2026-05-08 08:11 | -37.67817 | 144.84707 | 373 ft | 0 kts | 128° |